createdAt,value
2023-02-21T00:02:43.644Z,76.79
2023-02-21T00:05:29.125Z,76.82
2023-02-21T00:08:14.734Z,76.77
2023-02-21T00:10:59.925Z,76.83
2023-02-21T00:13:45.201Z,76.75
2023-02-21T00:16:35.984Z,76.92
2023-02-21T00:19:21.990Z,76.84
2023-02-21T00:22:07.207Z,76.53
2023-02-21T00:24:52.463Z,76.71
2023-02-21T00:27:37.514Z,76.60
2023-02-21T00:30:24.361Z,77.02
2023-02-21T00:33:09.962Z,76.83
2023-02-21T00:35:54.844Z,76.81
2023-02-21T00:38:40.087Z,76.68
2023-02-21T00:41:25.256Z,76.85
2023-02-21T00:44:10.802Z,76.68
2023-02-21T00:46:56.221Z,76.55
2023-02-21T00:49:41.668Z,76.62
2023-02-21T00:52:26.846Z,76.99
2023-02-21T00:55:11.798Z,76.88
2023-02-21T00:57:57.243Z,76.33
2023-02-21T01:00:43.809Z,76.41
2023-02-21T01:03:29.406Z,76.48
2023-02-21T01:06:15.168Z,76.56
2023-02-21T01:09:05.188Z,77.10
2023-02-21T01:11:51.067Z,76.32
2023-02-21T01:14:37.365Z,76.77
2023-02-21T01:17:22.516Z,76.54
2023-02-21T01:20:07.905Z,77.12
2023-02-21T01:22:53.520Z,77.32
2023-02-21T01:25:38.796Z,76.88
2023-02-21T01:28:24.366Z,76.78
2023-02-21T01:31:09.562Z,76.65
2023-02-21T01:33:57.263Z,77.19
2023-02-21T01:36:42.878Z,76.91
2023-02-21T01:39:28.760Z,76.95
2023-02-21T01:42:14.055Z,77.05
2023-02-21T01:45:01.659Z,76.80
2023-02-21T01:47:47.006Z,77.08
2023-02-21T01:50:43.683Z,76.67
2023-02-21T01:53:49.142Z,76.99
2023-02-21T01:56:34.309Z,77.02
2023-02-21T01:59:20.799Z,77.02
2023-02-21T02:02:17.229Z,77.19
2023-02-21T02:05:04.624Z,77.17
2023-02-21T02:07:50.461Z,77.37
2023-02-21T02:10:36.345Z,77.10
2023-02-21T02:13:37.594Z,77.14
2023-02-21T02:16:07.134Z,76.97
2023-02-21T02:18:40.906Z,77.02
2023-02-21T02:21:48.820Z,77.10
2023-02-21T02:24:38.305Z,77.16
2023-02-21T02:27:13.976Z,77.19
2023-02-21T02:29:55.625Z,77.19
2023-02-21T02:32:44.117Z,77.08
2023-02-21T02:35:19.493Z,77.11
2023-02-21T02:37:57.958Z,77.57
2023-02-21T02:40:43.800Z,77.46
2023-02-21T02:43:27.438Z,77.05
2023-02-21T02:46:01.133Z,77.30
2023-02-21T02:48:41.642Z,77.08
2023-02-21T02:51:12.546Z,77.34
2023-02-21T02:53:39.549Z,77.49
2023-02-21T02:56:12.092Z,77.46
2023-02-21T02:59:02.636Z,77.12
2023-02-21T03:01:51.756Z,77.27
2023-02-21T03:04:37.207Z,77.18
2023-02-21T03:07:19.076Z,77.32
2023-02-21T03:09:57.784Z,77.55
2023-02-21T03:12:51.732Z,77.42
2023-02-21T03:15:27.139Z,77.94
2023-02-21T03:18:01.154Z,77.59
2023-02-21T03:20:29.329Z,77.61
2023-02-21T03:22:58.426Z,77.33
2023-02-21T03:25:25.823Z,77.40
2023-02-21T03:27:55.491Z,77.50
2023-02-21T03:30:22.596Z,77.38
2023-02-21T03:32:52.376Z,77.36
2023-02-21T03:35:20.684Z,77.55
2023-02-21T03:37:52.245Z,77.77
2023-02-21T03:40:31.087Z,77.52
2023-02-21T03:42:59.781Z,77.62
2023-02-21T03:45:26.488Z,77.63
2023-02-21T03:47:53.151Z,77.83
2023-02-21T03:50:19.820Z,77.50
2023-02-21T03:52:46.514Z,77.53
2023-02-21T03:55:13.293Z,77.70
2023-02-21T03:57:40.136Z,77.74
2023-02-21T04:00:07.280Z,77.63
2023-02-21T04:02:33.898Z,77.78
2023-02-21T04:05:00.594Z,77.78
2023-02-21T04:07:27.306Z,77.89
2023-02-21T04:09:54.112Z,77.60
2023-02-21T04:12:20.856Z,77.45
2023-02-21T04:14:47.570Z,77.39
2023-02-21T04:17:16.186Z,77.51
2023-02-21T04:19:43.301Z,77.96
2023-02-21T04:22:10.105Z,78.12
2023-02-21T04:24:36.736Z,77.94
2023-02-21T04:27:03.517Z,77.76
2023-02-21T04:29:30.225Z,77.96
2023-02-21T04:31:57.137Z,77.54
2023-02-21T04:34:23.949Z,77.70
2023-02-21T04:36:50.630Z,77.79
2023-02-21T04:39:17.460Z,77.85
2023-02-21T04:41:44.225Z,77.41
2023-02-21T04:44:10.901Z,77.72
2023-02-21T04:46:37.686Z,78.02
2023-02-21T04:49:04.401Z,77.58
2023-02-21T04:51:31.322Z,77.66
2023-02-21T04:53:58.052Z,77.83
2023-02-21T04:56:27.580Z,77.60
2023-02-21T04:58:54.340Z,77.65
2023-02-21T05:01:22.259Z,77.76
2023-02-21T05:03:49.289Z,77.68
2023-02-21T05:06:24.112Z,77.70
2023-02-21T05:08:50.943Z,77.95
2023-02-21T05:11:19.501Z,77.93
2023-02-21T05:13:46.559Z,77.70
2023-02-21T05:16:13.353Z,77.95
2023-02-21T05:18:44.925Z,77.69
2023-02-21T05:21:12.021Z,77.79
2023-02-21T05:23:42.857Z,77.76
2023-02-21T05:26:11.872Z,77.94
2023-02-21T05:28:39.880Z,77.90
2023-02-21T05:31:07.307Z,77.95
2023-02-21T05:33:34.290Z,77.76
2023-02-21T05:36:01.078Z,77.79
2023-02-21T05:38:27.865Z,77.80
2023-02-21T05:40:54.719Z,77.83
2023-02-21T05:43:21.532Z,78.04
2023-02-21T05:45:48.246Z,77.74
2023-02-21T05:48:15.434Z,78.01
2023-02-21T05:50:42.177Z,77.75
2023-02-21T05:53:10.485Z,77.66
2023-02-21T05:55:37.649Z,77.93
2023-02-21T05:58:04.520Z,77.84
2023-02-21T06:00:31.952Z,77.89
2023-02-21T06:02:58.806Z,77.90
2023-02-21T06:05:25.668Z,77.83
2023-02-21T06:07:52.665Z,77.86
2023-02-21T06:10:19.928Z,77.89
2023-02-21T06:12:46.982Z,77.96
2023-02-21T06:15:14.045Z,77.95
2023-02-21T06:17:41.937Z,77.96
2023-02-21T06:20:12.706Z,78.00
2023-02-21T06:22:39.344Z,78.02
2023-02-21T06:25:06.725Z,77.73
2023-02-21T06:27:33.370Z,77.84
2023-02-21T06:30:00.085Z,77.66
2023-02-21T06:32:27.821Z,77.78
2023-02-21T06:34:54.591Z,77.79
2023-02-21T06:37:21.285Z,77.75
2023-02-21T06:39:48.115Z,77.53
2023-02-21T06:42:16.343Z,77.98
2023-02-21T06:44:44.885Z,77.90
2023-02-21T06:47:11.567Z,78.00
2023-02-21T06:49:38.342Z,78.26
2023-02-21T06:52:05.575Z,77.86
2023-02-21T06:54:32.491Z,78.14
2023-02-21T06:57:00.654Z,77.94
2023-02-21T06:59:28.910Z,77.93
2023-02-21T07:01:56.859Z,78.02
2023-02-21T07:04:25.020Z,78.46
2023-02-21T07:06:52.512Z,78.26
2023-02-21T07:09:19.267Z,77.98
2023-02-21T07:11:47.185Z,78.28
2023-02-21T07:14:14.537Z,78.12
2023-02-21T07:16:41.270Z,77.97
2023-02-21T07:19:07.997Z,78.06
2023-02-21T07:21:34.765Z,78.18
2023-02-21T07:24:01.435Z,78.31
2023-02-21T07:26:28.150Z,78.03
2023-02-21T07:28:54.858Z,78.07
2023-02-21T07:31:21.962Z,78.11
2023-02-21T07:33:48.778Z,78.18
2023-02-21T07:36:15.445Z,78.07
2023-02-21T07:38:42.109Z,78.02
2023-02-21T07:41:08.753Z,78.49
2023-02-21T07:43:35.514Z,78.39
2023-02-21T07:46:02.330Z,78.17
2023-02-21T07:48:29.110Z,78.20
2023-02-21T07:50:56.145Z,78.30
2023-02-21T07:53:22.804Z,78.13
2023-02-21T07:55:49.516Z,78.39
2023-02-21T07:58:16.188Z,78.35
2023-02-21T08:00:42.958Z,78.35
2023-02-21T08:03:13.569Z,78.40
2023-02-21T08:05:41.151Z,78.34
2023-02-21T08:08:09.410Z,78.06
2023-02-21T08:10:37.079Z,78.46
2023-02-21T08:13:04.539Z,78.49
2023-02-21T08:15:31.243Z,78.63
2023-02-21T08:17:57.889Z,78.35
2023-02-21T08:20:24.557Z,78.65
2023-02-21T08:22:51.306Z,78.72
2023-02-21T08:25:18.126Z,78.57
2023-02-21T08:27:46.475Z,78.79
2023-02-21T08:30:16.729Z,78.92
2023-02-21T08:32:43.944Z,78.73
2023-02-21T08:35:17.516Z,78.70
2023-02-21T08:37:46.333Z,78.86
2023-02-21T08:40:14.419Z,78.77
2023-02-21T08:42:41.666Z,78.62
2023-02-21T08:45:14.889Z,78.79
2023-02-21T08:47:41.526Z,78.74
2023-02-21T08:50:08.679Z,78.64
2023-02-21T08:52:35.385Z,78.74
2023-02-21T08:55:02.149Z,78.59
2023-02-21T08:57:28.924Z,78.83
2023-02-21T08:59:55.588Z,78.71
2023-02-21T09:02:32.444Z,78.97
2023-02-21T09:04:59.922Z,78.84
2023-02-21T09:07:28.808Z,78.90
2023-02-21T09:09:55.466Z,78.60
2023-02-21T09:12:22.157Z,78.97
2023-02-21T09:14:48.814Z,78.45
2023-02-21T09:17:15.520Z,78.40
2023-02-21T09:19:42.550Z,78.52
2023-02-21T09:22:10.729Z,78.63
2023-02-21T09:24:38.018Z,78.70
2023-02-21T09:27:05.705Z,78.41
2023-02-21T09:29:45.497Z,78.42
2023-02-21T09:32:13.619Z,78.53
2023-02-21T09:34:40.316Z,78.38
2023-02-21T09:37:07.407Z,78.49
2023-02-21T09:39:34.129Z,78.51
2023-02-21T09:42:00.878Z,78.52
2023-02-21T09:44:30.447Z,78.39
2023-02-21T09:47:01.650Z,78.44
2023-02-21T09:49:41.832Z,78.43
2023-02-21T09:52:21.408Z,78.55
2023-02-21T09:54:56.382Z,78.49
2023-02-21T09:57:23.544Z,78.21
2023-02-21T09:59:50.476Z,78.22
2023-02-21T10:02:58.379Z,78.25
2023-02-21T10:05:38.943Z,78.42
2023-02-21T10:08:38.709Z,78.35
2023-02-21T10:11:31.433Z,78.19
2023-02-21T10:14:18.775Z,78.10
2023-02-21T10:17:07.199Z,77.98
2023-02-21T10:19:41.417Z,77.92
2023-02-21T10:22:35.466Z,78.01
2023-02-21T10:25:20.942Z,77.85
2023-02-21T10:27:48.293Z,77.53
2023-02-21T10:30:29.562Z,77.39
2023-02-21T10:32:57.401Z,77.66
2023-02-21T10:35:25.015Z,77.37
2023-02-21T10:37:56.637Z,77.66
2023-02-21T10:40:32.556Z,77.73
2023-02-21T10:43:17.079Z,77.85
2023-02-21T10:46:22.157Z,77.08
2023-02-21T10:48:53.638Z,76.90
2023-02-21T10:51:38.250Z,77.26
2023-02-21T10:54:24.818Z,77.49
2023-02-21T10:56:54.055Z,77.51
2023-02-21T10:59:27.433Z,77.76
2023-02-21T11:01:55.094Z,77.64
2023-02-21T11:04:21.700Z,77.57
2023-02-21T11:06:51.538Z,77.27
2023-02-21T11:09:31.288Z,77.48
2023-02-21T11:12:03.035Z,77.27
2023-02-21T11:14:31.577Z,77.23
2023-02-21T11:17:17.540Z,76.95
2023-02-21T11:19:53.151Z,77.25
2023-02-21T11:22:25.938Z,77.08
2023-02-21T11:25:32.385Z,77.24
2023-02-21T11:28:22.629Z,77.08
2023-02-21T11:31:00.907Z,77.00
2023-02-21T11:33:28.941Z,77.22
2023-02-21T11:36:15.646Z,76.83
2023-02-21T11:39:19.087Z,76.80
2023-02-21T11:41:48.761Z,76.66
2023-02-21T11:44:32.372Z,76.58
2023-02-21T11:47:21.318Z,76.50
2023-02-21T11:49:52.661Z,76.28
2023-02-21T11:52:43.261Z,76.58
2023-02-21T11:55:15.768Z,76.38
2023-02-21T11:57:45.885Z,76.43
2023-02-21T12:00:39.871Z,76.51
2023-02-21T12:03:25.102Z,76.64
2023-02-21T12:06:21.880Z,76.52
2023-02-21T12:08:54.417Z,76.43
2023-02-21T12:12:07.407Z,76.45
2023-02-21T12:15:21.546Z,76.25
2023-02-21T12:18:29.069Z,75.68
2023-02-21T12:21:07.894Z,76.20
2023-02-21T12:23:41.276Z,76.13
2023-02-21T12:26:34.818Z,76.16
2023-02-21T12:29:04.361Z,76.51
2023-02-21T12:31:55.751Z,76.21
2023-02-21T12:34:40.699Z,75.92
2023-02-21T12:37:41.326Z,75.96
2023-02-21T12:40:26.666Z,76.03
2023-02-21T12:43:28.982Z,75.92
2023-02-21T12:46:37.250Z,75.94
2023-02-21T12:49:17.018Z,76.09
2023-02-21T12:52:11.151Z,75.72
2023-02-21T12:55:07.231Z,75.56
2023-02-21T12:58:09.364Z,75.98
2023-02-21T13:00:44.358Z,75.71
2023-02-21T13:03:24.002Z,75.77
2023-02-21T13:05:57.963Z,75.87
2023-02-21T13:08:32.527Z,75.39
2023-02-21T13:11:12.795Z,75.57
2023-02-21T13:13:40.051Z,75.46
2023-02-21T13:16:13.277Z,75.70
2023-02-21T13:18:46.202Z,75.46
2023-02-21T13:21:25.188Z,75.44
2023-02-21T13:24:16.123Z,75.33
2023-02-21T13:27:07.148Z,75.63
2023-02-21T13:29:39.040Z,74.99
2023-02-21T13:32:12.490Z,75.29
2023-02-21T13:34:45.790Z,75.58
2023-02-21T13:37:22.828Z,75.23
2023-02-21T13:40:23.914Z,75.28
2023-02-21T13:43:02.500Z,75.66
2023-02-21T13:45:29.853Z,75.46
2023-02-21T13:48:05.527Z,75.54
2023-02-21T13:50:38.073Z,75.54
2023-02-21T13:53:14.162Z,75.30
2023-02-21T13:55:59.316Z,75.31
2023-02-21T13:58:39.487Z,75.29
2023-02-21T14:01:15.234Z,75.13
2023-02-21T14:03:41.952Z,75.08
2023-02-21T14:06:08.535Z,75.21
2023-02-21T14:08:45.406Z,75.40
2023-02-21T14:11:16.707Z,75.38
2023-02-21T14:13:49.033Z,75.43
2023-02-21T14:16:22.848Z,75.29
2023-02-21T14:18:55.384Z,75.23
2023-02-21T14:21:27.182Z,75.18
2023-02-21T14:24:00.092Z,75.15
2023-02-21T14:26:38.957Z,75.03
2023-02-21T14:29:08.715Z,75.00
2023-02-21T14:31:51.444Z,75.08
2023-02-21T14:34:25.554Z,75.17
2023-02-21T14:36:54.636Z,75.02
2023-02-21T14:39:23.691Z,74.97
2023-02-21T14:42:26.395Z,75.11
2023-02-21T14:44:55.919Z,74.79
2023-02-21T14:47:46.658Z,74.66
2023-02-21T14:50:32.475Z,74.62
2023-02-21T14:53:26.483Z,74.73
2023-02-21T14:55:53.127Z,74.84
2023-02-21T14:58:38.382Z,74.64
2023-02-21T15:01:25.614Z,74.67
2023-02-21T15:04:09.952Z,74.91
2023-02-21T15:06:40.001Z,74.73
2023-02-21T15:09:18.894Z,74.65
2023-02-21T15:11:48.482Z,74.57
2023-02-21T15:14:27.142Z,74.57
2023-02-21T15:17:11.925Z,74.80
2023-02-21T15:19:39.460Z,74.48
2023-02-21T15:22:27.225Z,74.42
2023-02-21T15:25:09.042Z,74.24
2023-02-21T15:27:54.036Z,74.47
2023-02-21T15:30:27.721Z,74.56
2023-02-21T15:33:17.803Z,74.59
2023-02-21T15:35:59.336Z,74.58
2023-02-21T15:38:59.321Z,74.34
2023-02-21T15:41:33.740Z,74.24
2023-02-21T15:44:08.143Z,74.42
2023-02-21T15:46:44.540Z,74.04
2023-02-21T15:49:27.189Z,74.25
2023-02-21T15:51:54.210Z,74.32
2023-02-21T15:54:20.940Z,74.39
2023-02-21T15:56:47.972Z,74.01
2023-02-21T15:59:26.713Z,74.24
2023-02-21T16:02:11.685Z,74.41
2023-02-21T16:04:41.163Z,74.25
2023-02-21T16:07:35.073Z,74.41
2023-02-21T16:10:06.054Z,74.31
2023-02-21T16:12:43.990Z,73.87
2023-02-21T16:15:24.401Z,74.17
2023-02-21T16:18:04.005Z,73.80
2023-02-21T16:20:32.259Z,73.97
2023-02-21T16:23:35.137Z,73.90
2023-02-21T16:26:12.085Z,73.99
2023-02-21T16:28:41.001Z,73.58
2023-02-21T16:31:09.973Z,73.77
2023-02-21T16:33:37.270Z,73.83
2023-02-21T16:36:10.387Z,73.46
2023-02-21T16:38:37.041Z,73.95
2023-02-21T16:41:03.886Z,73.87
2023-02-21T16:43:30.559Z,73.85
2023-02-21T16:45:58.867Z,73.23
2023-02-21T16:48:32.955Z,73.98
2023-02-21T16:51:03.280Z,73.65
2023-02-21T16:53:30.693Z,73.50
2023-02-21T16:55:59.114Z,73.55
2023-02-21T16:58:32.803Z,73.61
2023-02-21T17:01:16.186Z,73.53
2023-02-21T17:03:43.168Z,73.54
2023-02-21T17:06:18.576Z,73.42
2023-02-21T17:08:45.379Z,73.54
2023-02-21T17:11:12.570Z,73.36
2023-02-21T17:13:39.503Z,73.09
2023-02-21T17:16:07.089Z,73.21
2023-02-21T17:18:33.794Z,73.20
2023-02-21T17:21:01.061Z,72.75
2023-02-21T17:23:28.276Z,72.96
2023-02-21T17:25:55.098Z,72.85
2023-02-21T17:28:22.066Z,73.15
2023-02-21T17:30:48.826Z,73.13
2023-02-21T17:33:15.884Z,72.93
2023-02-21T17:35:42.633Z,73.49
2023-02-21T17:38:09.780Z,73.00
2023-02-21T17:40:36.544Z,73.32
2023-02-21T17:43:09.029Z,72.89
2023-02-21T17:45:38.976Z,72.45
2023-02-21T17:48:06.250Z,72.29
2023-02-21T17:50:33.198Z,72.29
2023-02-21T17:53:00.292Z,72.65
2023-02-21T17:55:29.263Z,72.81
2023-02-21T17:57:56.320Z,72.27
2023-02-21T18:00:26.631Z,72.90
2023-02-21T18:02:55.434Z,72.74
2023-02-21T18:05:23.085Z,72.62
2023-02-21T18:07:51.678Z,72.84
2023-02-21T18:10:21.400Z,72.62
2023-02-21T18:12:50.848Z,72.68
2023-02-21T18:15:19.336Z,72.77
2023-02-21T18:17:46.052Z,72.83
2023-02-21T18:20:15.133Z,72.54
2023-02-21T18:22:42.264Z,72.59
2023-02-21T18:25:09.131Z,72.03
2023-02-21T18:27:37.110Z,72.78
2023-02-21T18:30:04.416Z,72.58
2023-02-21T18:32:31.417Z,72.69
2023-02-21T18:34:59.894Z,73.03
2023-02-21T18:37:26.933Z,72.93
2023-02-21T18:39:54.942Z,72.75
2023-02-21T18:42:24.042Z,72.82
2023-02-21T18:44:51.703Z,72.95
2023-02-21T18:47:19.444Z,73.11
2023-02-21T18:49:47.999Z,72.91
2023-02-21T18:52:15.672Z,72.66
2023-02-21T18:54:47.055Z,73.08
2023-02-21T18:57:13.817Z,73.06
2023-02-21T18:59:40.520Z,72.97
2023-02-21T19:02:11.762Z,72.97
2023-02-21T19:04:38.688Z,72.33
2023-02-21T19:07:09.505Z,72.44
2023-02-21T19:09:36.360Z,73.08
2023-02-21T19:12:04.169Z,72.98
2023-02-21T19:14:31.686Z,73.13
2023-02-21T19:16:58.365Z,73.28
2023-02-21T19:19:25.086Z,72.85
2023-02-21T19:21:51.744Z,73.14
2023-02-21T19:24:18.633Z,73.21
2023-02-21T19:26:45.287Z,73.52
2023-02-21T19:29:12.119Z,73.94
2023-02-21T19:31:38.903Z,73.46
2023-02-21T19:34:06.006Z,73.14
2023-02-21T19:36:32.759Z,74.07
2023-02-21T19:38:59.385Z,73.44
2023-02-21T19:41:26.076Z,73.54
2023-02-21T19:43:52.731Z,73.49
2023-02-21T19:46:22.180Z,73.08
2023-02-21T19:48:49.401Z,73.31
2023-02-21T19:51:18.803Z,73.85
2023-02-21T19:53:45.925Z,73.80
2023-02-21T19:56:12.742Z,73.52
2023-02-21T19:58:39.506Z,73.61
2023-02-21T20:01:07.419Z,73.57
2023-02-21T20:03:34.607Z,73.84
2023-02-21T20:06:03.273Z,73.98
2023-02-21T20:08:30.010Z,73.56
2023-02-21T20:10:57.371Z,73.76
2023-02-21T20:13:24.451Z,73.62
2023-02-21T20:15:52.430Z,73.63
2023-02-21T20:18:19.093Z,73.39
2023-02-21T20:20:47.355Z,73.62
2023-02-21T20:23:14.088Z,73.70
2023-02-21T20:25:40.772Z,73.87
2023-02-21T20:28:07.478Z,73.59
2023-02-21T20:30:34.310Z,73.85
2023-02-21T20:33:01.711Z,73.67
2023-02-21T20:35:29.666Z,73.77
2023-02-21T20:38:00.879Z,73.50
2023-02-21T20:40:28.289Z,73.88
2023-02-21T20:42:55.019Z,74.17
2023-02-21T20:45:23.751Z,73.51
2023-02-21T20:47:51.103Z,74.00
2023-02-21T20:50:24.110Z,73.41
2023-02-21T20:52:51.646Z,74.16
2023-02-21T20:55:22.431Z,73.64
2023-02-21T20:57:49.800Z,73.92
2023-02-21T21:00:18.739Z,73.79
2023-02-21T21:02:45.482Z,73.92
2023-02-21T21:05:16.792Z,74.11
2023-02-21T21:07:44.513Z,74.00
2023-02-21T21:10:14.572Z,74.01
2023-02-21T21:12:42.727Z,73.33
2023-02-21T21:15:10.528Z,73.38
2023-02-21T21:17:39.252Z,73.82
2023-02-21T21:20:14.535Z,73.83
2023-02-21T21:22:42.100Z,73.61
2023-02-21T21:25:09.557Z,73.74
2023-02-21T21:27:37.215Z,73.51
2023-02-21T21:30:07.347Z,74.02
2023-02-21T21:32:34.639Z,73.80
2023-02-21T21:35:07.460Z,73.37
2023-02-21T21:37:35.873Z,73.57
2023-02-21T21:40:16.276Z,73.66
2023-02-21T21:42:52.419Z,73.27
2023-02-21T21:45:25.420Z,73.76
2023-02-21T21:47:54.603Z,73.71
2023-02-21T21:50:24.643Z,73.31
2023-02-21T21:52:57.498Z,73.56
2023-02-21T21:55:26.497Z,73.73
2023-02-21T21:57:53.949Z,73.03
2023-02-21T22:00:23.650Z,73.18
2023-02-21T22:02:59.153Z,73.15
2023-02-21T22:05:31.510Z,73.62
2023-02-21T22:07:58.789Z,73.46
2023-02-21T22:10:26.625Z,73.05
2023-02-21T22:12:56.790Z,73.13
2023-02-21T22:15:26.677Z,73.23
2023-02-21T22:17:55.222Z,73.25
2023-02-21T22:20:28.572Z,73.69
2023-02-21T22:22:59.432Z,73.26
2023-02-21T22:25:28.400Z,73.45
2023-02-21T22:27:55.159Z,73.10
2023-02-21T22:30:23.058Z,73.06
2023-02-21T22:32:50.112Z,73.23
2023-02-21T22:35:20.159Z,73.62
2023-02-21T22:37:55.501Z,73.04
2023-02-21T22:40:25.616Z,73.26
2023-02-21T22:42:56.792Z,73.15
2023-02-21T22:45:24.231Z,73.11
2023-02-21T22:47:52.542Z,72.98
2023-02-21T22:50:21.660Z,73.23
2023-02-21T22:52:57.869Z,73.02
2023-02-21T22:55:26.407Z,73.09
2023-02-21T22:57:54.805Z,73.15
2023-02-21T23:00:26.483Z,73.10
2023-02-21T23:02:53.336Z,72.96
2023-02-21T23:05:21.803Z,72.90
2023-02-21T23:07:51.352Z,73.06
2023-02-21T23:10:25.513Z,72.54
2023-02-21T23:12:54.712Z,72.59
2023-02-21T23:15:22.415Z,72.28
2023-02-21T23:17:50.781Z,72.19
2023-02-21T23:20:22.316Z,71.90
2023-02-21T23:22:54.809Z,72.15
2023-02-21T23:25:27.231Z,72.55
2023-02-21T23:27:58.267Z,72.20
2023-02-21T23:30:27.285Z,72.34
2023-02-21T23:32:55.790Z,72.32
2023-02-21T23:35:22.887Z,71.86
2023-02-21T23:37:52.400Z,72.34
2023-02-21T23:40:22.641Z,72.35
2023-02-21T23:42:52.202Z,72.34
2023-02-21T23:45:20.616Z,71.06
2023-02-21T23:47:53.444Z,71.71
2023-02-21T23:50:23.721Z,71.94
2023-02-21T23:52:53.078Z,71.57
2023-02-21T23:55:27.938Z,71.23
2023-02-21T23:57:57.076Z,71.11
